Terminal Aerodrome Forecast
Issued by NWS Nashville, TN

Home | Current Version | Previous Version | Text Only | Print | Product List | Glossary On
Versions: 1 2 3 4 5 6 7 8 9 10 11 12 13 14 15 16 17 18 19 20 21 22
000
FTUS44 KOHX 031734
TAFBNA
TAF
KBNA 031734Z 0318/0418 30008KT P6SM SCT025 BKN035
     FM040000 30004KT P6SM BKN060
     FM041400 28010G18KT P6SM OVC050
     FM041700 30012G25KT P6SM VCSH OVC035=

USA.gov is the U.S. government's official web portal to all federal, state and local government web resources and services.